Time;durP1;ratioP1;P1;durP2;ratioP2;P2;SDS_P1;SDS_P2;PMS_P1;PMS_P2;Temp;Humidity;BMP_temperature;BMP_pressure;BME280_temperature;BME280_humidity;BME280_pressure;Samples;Min_cycle;Max_cycle;Signal;HPM_P1;HPM_P2
2022/06/26 00:01:23;;;;;;;;;;;;;;;26.91;85.92;98502.53;5034306;28;19923;-57
2022/06/26 00:03:48;;;;;;;;;;;;;;;26.88;86.57;98496.72;5033169;28;19951;-57
2022/06/26 00:06:13;;;;;;;;;;;;;;;26.72;86.21;98499.38;5034326;28;19960;-57
2022/06/26 00:08:38;;;;;;;;;;;;;;;26.50;88.95;98496.34;5034023;28;20362;-57
2022/06/26 00:11:04;;;;;;;;;;;;;;;26.66;87.83;98499.06;5033432;28;20027;-57
2022/06/26 00:13:29;;;;;;;;;;;;;;;26.59;89.48;98505.94;5033777;28;20045;-57
2022/06/26 00:15:54;;;;;;;;;;;;;;;26.45;88.68;98493.38;5031905;28;19956;-57
2022/06/26 00:18:19;;;;;;;;;;;;;;;26.26;92.10;98497.13;5033774;28;20086;-58
2022/06/26 00:20:45;;;;;;;;;;;;;;;26.10;89.84;98502.38;5033265;28;19920;-57
2022/06/26 00:23:10;;;;;;;;;;;;;;;26.32;90.09;98498.28;5033071;28;19920;-57
2022/06/26 00:25:35;;;;;;;;;;;;;;;26.84;87.07;98496.22;5033772;28;20012;-57
2022/06/26 00:28:01;;;;;;;;;;;;;;;26.19;88.76;98502.22;5033522;28;20364;-58
2022/06/26 00:30:26;;;;;;;;;;;;;;;26.74;86.96;98500.88;5033630;28;19925;-57
2022/06/26 00:32:51;;;;;;;;;;;;;;;25.54;91.97;98512.47;5033733;28;19952;-57
2022/06/26 00:35:16;;;;;;;;;;;;;;;25.98;90.06;98507.09;5031615;28;19967;-55
2022/06/26 00:37:42;;;;;;;;;;;;;;;26.47;89.21;98500.13;5032528;28;20598;-57
2022/06/26 00:40:07;;;;;;;;;;;;;;;25.77;92.92;98507.47;5031652;28;20642;-56
2022/06/26 00:42:32;;;;;;;;;;;;;;;26.36;89.76;98497.00;5032323;28;20059;-57
2022/06/26 00:44:58;;;;;;;;;;;;;;;25.53;92.85;98505.56;5035157;28;19975;-57
2022/06/26 00:47:23;;;;;;;;;;;;;;;26.13;90.30;98509.97;5033472;28;19931;-56
2022/06/26 00:49:49;;;;;;;;;;;;;;;26.12;89.68;98501.22;5033969;28;20797;-57
2022/06/26 00:52:15;;;;;;;;;;;;;;;26.57;89.18;98505.31;5032980;28;19920;-56
2022/06/26 00:54:40;;;;;;;;;;;;;;;26.47;89.53;98497.50;5033099;28;19969;-57
2022/06/26 00:57:05;;;;;;;;;;;;;;;26.55;87.47;98501.16;5035172;28;19921;-57
2022/06/26 00:59:31;;;;;;;;;;;;;;;25.99;90.92;98511.41;5033313;28;20035;-55
2022/06/26 01:01:56;;;;;;;;;;;;;;;26.49;87.50;98500.81;5034591;28;19928;-56
2022/06/26 01:04:21;;;;;;;;;;;;;;;26.14;90.35;98504.53;5034739;28;20707;-57
2022/06/26 01:06:47;;;;;;;;;;;;;;;26.15;90.52;98503.53;5034313;28;19991;-56
2022/06/26 01:09:12;;;;;;;;;;;;;;;26.50;88.71;98499.81;5033640;28;19920;-56
2022/06/26 01:11:38;;;;;;;;;;;;;;;26.78;86.73;98490.81;5034344;28;19921;-57
2022/06/26 01:14:03;;;;;;;;;;;;;;;27.18;87.08;98491.75;5032351;28;19976;-57
2022/06/26 01:16:28;;;;;;;;;;;;;;;26.54;88.14;98497.66;5034173;28;19920;-56
2022/06/26 01:18:54;;;;;;;;;;;;;;;26.65;87.28;98497.38;5032813;28;19921;-56
2022/06/26 01:21:21;;;;;;;;;;;;;;;25.94;91.96;98518.97;5033734;28;19928;-56
2022/06/26 01:23:47;;;;;;;;;;;;;;;25.93;94.12;98538.41;5034519;28;19931;-56
2022/06/26 01:26:12;;;;;;;;;;;;;;;26.93;89.44;98549.91;5034918;28;19920;-56
2022/06/26 01:28:38;;;;;;;;;;;;;;;26.89;87.93;98557.34;5034418;28;19920;-55
2022/06/26 01:31:03;;;;;;;;;;;;;;;27.51;84.95;98551.56;5033587;28;20014;-57
2022/06/26 01:33:29;;;;;;;;;;;;;;;28.06;82.54;98544.63;5034704;28;19921;-57
2022/06/26 01:35:54;;;;;;;;;;;;;;;28.09;81.65;98548.75;5033330;28;19921;-57
2022/06/26 01:38:21;;;;;;;;;;;;;;;28.24;82.24;98539.09;5034326;28;20491;-57
2022/06/26 01:40:47;;;;;;;;;;;;;;;28.34;81.64;98529.09;5034312;28;19970;-58
2022/06/26 01:43:12;;;;;;;;;;;;;;;28.32;80.45;98528.44;5033999;28;19921;-57
2022/06/26 01:45:42;;;;;;;;;;;;;;;28.35;80.48;98537.84;5034893;28;19928;-58
2022/06/26 01:48:07;;;;;;;;;;;;;;;28.44;78.75;98525.38;5033969;28;20008;-57
2022/06/26 01:50:32;;;;;;;;;;;;;;;28.04;81.56;98540.50;5033013;28;20011;-57
2022/06/26 01:52:57;;;;;;;;;;;;;;;28.29;81.09;98546.50;5034721;28;20015;-58
2022/06/26 01:55:22;;;;;;;;;;;;;;;28.42;80.25;98553.88;5035254;28;19932;-57
2022/06/26 01:57:48;;;;;;;;;;;;;;;28.45;80.82;98558.84;5034162;28;19927;-57
2022/06/26 02:00:13;;;;;;;;;;;;;;;27.84;83.50;98566.53;5034093;28;19925;-58
2022/06/26 02:02:38;;;;;;;;;;;;;;;27.83;83.86;98563.06;5033495;28;19920;-58
2022/06/26 02:05:04;;;;;;;;;;;;;;;27.93;82.75;98561.03;5034761;28;20004;-57
2022/06/26 02:07:29;;;;;;;;;;;;;;;28.15;83.44;98574.53;5034531;28;19955;-57
2022/06/26 02:15:24;;;;;;;;;;;;;;;28.12;83.90;98564.28;5033778;28;20207;-58
2022/06/26 02:17:49;;;;;;;;;;;;;;;28.15;83.46;98563.97;5035038;28;20018;-58
2022/06/26 02:20:14;;;;;;;;;;;;;;;28.20;83.22;98564.25;5033761;28;20327;-58
2022/06/26 02:22:40;;;;;;;;;;;;;;;28.18;83.34;98570.72;5034443;28;19920;-58
2022/06/26 02:25:08;;;;;;;;;;;;;;;28.20;83.95;98571.38;5035772;28;19917;-58
2022/06/26 02:27:33;;;;;;;;;;;;;;;28.11;84.42;98565.28;5036901;28;19928;-58
2022/06/26 02:29:58;;;;;;;;;;;;;;;28.13;84.20;98571.25;5035279;28;19994;-58
2022/06/26 02:32:24;;;;;;;;;;;;;;;28.13;84.63;98571.25;5036969;28;19921;-58
2022/06/26 02:34:49;;;;;;;;;;;;;;;28.01;84.63;98578.75;5037640;28;19917;-58
2022/06/26 02:37:14;;;;;;;;;;;;;;;28.05;84.51;98579.19;5036849;28;19932;-58
2022/06/26 02:39:39;;;;;;;;;;;;;;;28.14;84.33;98578.19;5035721;28;20678;-58
2022/06/26 02:42:05;;;;;;;;;;;;;;;27.74;84.40;98578.13;5036661;28;20378;-58
2022/06/26 02:44:30;;;;;;;;;;;;;;;27.94;81.87;98573.31;5036768;28;19944;-58
2022/06/26 02:46:55;;;;;;;;;;;;;;;27.84;85.13;98582.44;5037925;28;20039;-59
2022/06/26 02:49:20;;;;;;;;;;;;;;;28.04;83.85;98570.44;5035760;28;19916;-59
2022/06/26 02:51:46;;;;;;;;;;;;;;;28.14;83.80;98581.66;5036804;28;19921;-58
2022/06/26 02:54:11;;;;;;;;;;;;;;;28.04;84.03;98582.88;5036968;28;19913;-59
2022/06/26 02:56:36;;;;;;;;;;;;;;;28.02;84.20;98590.16;5036680;28;20960;-59
2022/06/26 02:59:01;;;;;;;;;;;;;;;28.08;83.08;98594.75;5035759;28;19925;-59
2022/06/26 03:01:27;;;;;;;;;;;;;;;27.89;84.48;98596.78;5035995;28;20003;-59
2022/06/26 03:03:52;;;;;;;;;;;;;;;27.87;83.91;98598.81;5035720;28;20463;-59
2022/06/26 03:06:17;;;;;;;;;;;;;;;27.91;83.99;98604.56;5036619;28;20702;-58
2022/06/26 03:08:42;;;;;;;;;;;;;;;27.59;85.61;98602.78;5036376;28;20496;-59
2022/06/26 03:11:07;;;;;;;;;;;;;;;27.28;88.30;98608.78;5034801;28;20302;-58
2022/06/26 03:13:33;;;;;;;;;;;;;;;26.11;96.82;98615.69;5034031;28;19925;-58
2022/06/26 03:15:58;;;;;;;;;;;;;;;26.64;94.55;98622.53;5035116;28;19934;-59
2022/06/26 03:18:23;;;;;;;;;;;;;;;26.98;92.77;98618.13;5035946;28;20024;-58
2022/06/26 03:20:48;;;;;;;;;;;;;;;26.98;91.49;98616.31;5034874;28;20031;-59
2022/06/26 03:23:14;;;;;;;;;;;;;;;27.09;90.70;98623.09;5035996;28;20424;-59
2022/06/26 03:25:39;;;;;;;;;;;;;;;27.39;89.36;98621.63;5035401;28;20391;-58
2022/06/26 03:28:04;;;;;;;;;;;;;;;27.36;89.21;98616.69;5035359;28;19921;-58
2022/06/26 03:30:29;;;;;;;;;;;;;;;27.09;89.20;98615.97;5035376;28;19917;-58
2022/06/26 03:32:55;;;;;;;;;;;;;;;27.22;89.79;98615.53;5035094;28;19921;-58
2022/06/26 03:35:20;;;;;;;;;;;;;;;27.27;89.37;98617.69;5035584;28;19920;-58
2022/06/26 03:37:45;;;;;;;;;;;;;;;27.36;88.75;98611.41;5034986;28;19950;-58
2022/06/26 03:40:11;;;;;;;;;;;;;;;26.79;92.27;98614.78;5034451;28;19929;-58
2022/06/26 03:42:37;;;;;;;;;;;;;;;27.11;91.04;98616.66;5034077;28;19920;-58
2022/06/26 03:45:03;;;;;;;;;;;;;;;27.16;90.05;98616.16;5032707;28;19931;-58
2022/06/26 03:47:28;;;;;;;;;;;;;;;27.32;89.41;98610.06;5035031;28;19931;-58
2022/06/26 03:49:54;;;;;;;;;;;;;;;27.18;89.75;98616.00;5034566;28;20278;-58
2022/06/26 03:52:19;;;;;;;;;;;;;;;26.90;91.21;98611.03;5034354;28;20239;-59
2022/06/26 03:54:45;;;;;;;;;;;;;;;27.10;91.24;98607.06;5034738;28;20492;-59
2022/06/26 03:57:10;;;;;;;;;;;;;;;27.13;90.49;98612.03;5034733;28;19920;-59
2022/06/26 03:59:36;;;;;;;;;;;;;;;26.97;90.46;98614.66;5033694;28;19924;-59
2022/06/26 04:02:02;;;;;;;;;;;;;;;27.13;89.93;98614.66;5034710;28;19921;-59
2022/06/26 04:04:27;;;;;;;;;;;;;;;26.59;90.67;98619.53;5035195;28;19931;-59
2022/06/26 04:06:52;;;;;;;;;;;;;;;26.15;91.13;98618.84;5034966;28;19982;-59
2022/06/26 04:09:18;;;;;;;;;;;;;;;27.04;91.60;98620.94;5034391;28;20536;-58
2022/06/26 04:11:43;;;;;;;;;;;;;;;27.25;91.83;98625.78;5034879;28;20007;-58
2022/06/26 04:14:08;;;;;;;;;;;;;;;27.84;90.46;98624.75;5033315;28;20686;-58
2022/06/26 04:16:33;;;;;;;;;;;;;;;28.05;88.76;98632.97;5034716;28;19924;-58
2022/06/26 04:18:59;;;;;;;;;;;;;;;28.22;88.73;98628.47;5033943;28;19921;-58
2022/06/26 04:21:24;;;;;;;;;;;;;;;28.33;88.45;98627.28;5032876;28;20000;-58
2022/06/26 04:23:49;;;;;;;;;;;;;;;28.14;88.66;98633.78;5033672;28;19921;-58
2022/06/26 04:26:14;;;;;;;;;;;;;;;27.99;89.72;98644.25;5034898;28;19995;-58
2022/06/26 04:28:40;;;;;;;;;;;;;;;27.79;91.23;98637.66;5033751;28;19971;-58
2022/06/26 04:31:05;;;;;;;;;;;;;;;27.90;90.13;98651.38;5033577;28;19916;-58
2022/06/26 04:33:30;;;;;;;;;;;;;;;27.60;90.71;98647.59;5034019;28;19920;-58
2022/06/26 04:35:55;;;;;;;;;;;;;;;27.52;90.14;98648.41;5033639;28;19920;-58
2022/06/26 04:38:20;;;;;;;;;;;;;;;27.46;91.13;98664.97;5034272;28;19916;-58
2022/06/26 04:40:47;;;;;;;;;;;;;;;26.18;99.13;98685.31;5033431;28;20191;-58
2022/06/26 04:43:12;;;;;;;;;;;;;;;24.71;100.00;98702.44;5032983;28;20022;-58
2022/06/26 04:45:37;;;;;;;;;;;;;;;24.43;100.00;98718.19;5032745;28;20743;-58
2022/06/26 04:48:02;;;;;;;;;;;;;;;25.18;100.00;98708.44;5034825;28;20012;-58
2022/06/26 04:50:28;;;;;;;;;;;;;;;26.42;100.00;98708.41;5032547;28;20107;-58
2022/06/26 04:52:53;;;;;;;;;;;;;;;27.42;100.00;98698.00;5034407;28;19924;-58
2022/06/26 04:55:18;;;;;;;;;;;;;;;27.44;97.64;98703.97;5032620;28;19924;-58
2022/06/26 04:57:44;;;;;;;;;;;;;;;27.35;98.70;98704.09;5033658;28;19935;-58
2022/06/26 05:00:13;;;;;;;;;;;;;;;27.68;96.41;98703.13;5033049;28;20338;-58
2022/06/26 05:02:38;;;;;;;;;;;;;;;28.09;94.40;98712.88;5032857;28;20030;-58
2022/06/26 05:05:04;;;;;;;;;;;;;;;28.19;93.70;98708.25;5034409;28;19917;-58
2022/06/26 05:07:29;;;;;;;;;;;;;;;28.58;89.29;98702.19;5034972;28;20371;-58
2022/06/26 05:09:55;;;;;;;;;;;;;;;28.59;88.73;98709.13;5033743;28;19998;-58
2022/06/26 05:12:20;;;;;;;;;;;;;;;28.60;89.23;98710.78;5033662;28;20427;-58
2022/06/26 05:14:45;;;;;;;;;;;;;;;28.13;92.47;98716.84;5031509;28;19959;-58
2022/06/26 05:17:10;;;;;;;;;;;;;;;27.50;100.00;98729.75;5031968;28;19935;-58
2022/06/26 05:19:36;;;;;;;;;;;;;;;26.43;100.00;98747.00;5032664;28;20498;-58
2022/06/26 05:22:02;;;;;;;;;;;;;;;26.21;100.00;98737.81;5032215;28;19970;-58
2022/06/26 05:24:28;;;;;;;;;;;;;;;27.48;100.00;98731.75;5032191;28;19923;-58
2022/06/26 05:26:53;;;;;;;;;;;;;;;27.97;100.00;98730.94;5032116;28;19925;-58
2022/06/26 05:29:18;;;;;;;;;;;;;;;27.00;100.00;98738.53;5033038;28;19974;-58
2022/06/26 05:31:44;;;;;;;;;;;;;;;26.63;100.00;98731.81;5032723;28;19921;-58
2022/06/26 05:34:09;;;;;;;;;;;;;;;26.42;100.00;98749.81;5033703;28;20410;-58
2022/06/26 05:36:34;;;;;;;;;;;;;;;26.46;100.00;98751.19;5032812;28;20667;-58
2022/06/26 05:38:59;;;;;;;;;;;;;;;26.66;100.00;98750.00;5032824;28;19979;-58
2022/06/26 05:41:24;;;;;;;;;;;;;;;26.52;100.00;98761.09;5033087;28;19917;-58
2022/06/26 05:43:50;;;;;;;;;;;;;;;26.85;100.00;98759.47;5032558;28;20405;-58
2022/06/26 05:46:15;;;;;;;;;;;;;;;27.25;100.00;98754.50;5033218;28;19974;-59
2022/06/26 05:48:41;;;;;;;;;;;;;;;27.66;100.00;98765.16;5033513;28;19921;-58
2022/06/26 05:51:06;;;;;;;;;;;;;;;27.78;100.00;98757.69;5032428;28;19999;-58
2022/06/26 05:53:31;;;;;;;;;;;;;;;27.60;100.00;98758.72;5033117;28;19920;-58
2022/06/26 05:55:57;;;;;;;;;;;;;;;27.92;100.00;98765.84;5031811;28;19927;-58
2022/06/26 05:58:22;;;;;;;;;;;;;;;26.69;100.00;98784.00;5032333;28;19978;-58
2022/06/26 06:00:47;;;;;;;;;;;;;;;27.19;100.00;98768.34;5033929;28;19932;-58
2022/06/26 06:03:12;;;;;;;;;;;;;;;27.56;100.00;98770.59;5035330;28;19927;-58
2022/06/26 06:05:38;;;;;;;;;;;;;;;28.05;100.00;98767.97;5037041;28;19924;-58
2022/06/26 06:08:03;;;;;;;;;;;;;;;27.18;100.00;98771.97;5035806;28;19925;-58
2022/06/26 06:10:28;;;;;;;;;;;;;;;28.26;98.44;98761.34;5036280;28;19931;-58
2022/06/26 06:12:54;;;;;;;;;;;;;;;27.73;100.00;98771.44;5035981;28;20252;-59
2022/06/26 06:15:19;;;;;;;;;;;;;;;26.75;100.00;98781.72;5037053;28;20534;-59
2022/06/26 06:17:45;;;;;;;;;;;;;;;27.42;100.00;98790.59;5035907;28;19931;-58
2022/06/26 06:20:11;;;;;;;;;;;;;;;27.56;100.00;98786.47;5035295;28;19935;-58
2022/06/26 06:22:44;;;;;;;;;;;;;;;27.37;100.00;98777.03;5036492;28;19921;-58
2022/06/26 06:25:09;;;;;;;;;;;;;;;28.78;96.56;98774.13;5036152;28;19921;-59
2022/06/26 06:27:35;;;;;;;;;;;;;;;28.12;99.40;98778.72;5035625;28;19927;-59
2022/06/26 06:30:00;;;;;;;;;;;;;;;29.44;93.33;98771.19;5034940;28;19944;-59
2022/06/26 06:32:26;;;;;;;;;;;;;;;28.36;95.26;98784.00;5034627;28;19927;-59
2022/06/26 06:34:51;;;;;;;;;;;;;;;27.39;100.00;98785.59;5036516;28;19928;-59
2022/06/26 06:37:16;;;;;;;;;;;;;;;28.65;96.16;98787.13;5035830;28;20035;-59
2022/06/26 06:39:41;;;;;;;;;;;;;;;28.12;98.35;98797.25;5033918;28;19925;-59
2022/06/26 06:42:07;;;;;;;;;;;;;;;26.90;100.00;98801.28;5033107;28;19924;-59
2022/06/26 06:44:32;;;;;;;;;;;;;;;27.47;100.00;98803.31;5036520;28;19920;-59
2022/06/26 06:46:57;;;;;;;;;;;;;;;27.67;100.00;98798.56;5037250;28;19917;-59
2022/06/26 06:49:22;;;;;;;;;;;;;;;29.17;94.48;98795.41;5035183;28;20311;-59
2022/06/26 06:51:48;;;;;;;;;;;;;;;29.10;94.86;98812.16;5035505;28;19927;-59
2022/06/26 06:54:13;;;;;;;;;;;;;;;27.34;100.00;98814.34;5036698;28;19925;-59
2022/06/26 06:56:39;;;;;;;;;;;;;;;26.68;100.00;98827.25;5035654;28;20659;-59
2022/06/26 06:59:04;;;;;;;;;;;;;;;26.89;100.00;98820.75;5035140;28;19923;-59
2022/06/26 07:01:29;;;;;;;;;;;;;;;27.19;100.00;98818.59;5036370;28;19974;-59
2022/06/26 07:03:55;;;;;;;;;;;;;;;27.30;100.00;98810.38;5036253;28;21034;-59
2022/06/26 07:06:20;;;;;;;;;;;;;;;27.27;100.00;98811.50;5035839;28;19931;-59
2022/06/26 07:08:45;;;;;;;;;;;;;;;27.92;100.00;98807.38;5036415;28;20019;-59
2022/06/26 07:11:11;;;;;;;;;;;;;;;26.78;100.00;98827.16;5033836;28;19921;-59
2022/06/26 07:13:36;;;;;;;;;;;;;;;26.63;100.00;98821.59;5035104;28;19927;-59
2022/06/26 07:16:03;;;;;;;;;;;;;;;26.52;100.00;98829.75;5036224;28;19917;-59
2022/06/26 07:18:28;;;;;;;;;;;;;;;27.80;100.00;98822.69;5034851;28;19927;-58
2022/06/26 07:20:53;;;;;;;;;;;;;;;28.46;99.64;98820.91;5035508;28;19929;-59
2022/06/26 07:23:19;;;;;;;;;;;;;;;27.58;100.00;98831.28;5034863;28;19925;-59
2022/06/26 07:25:44;;;;;;;;;;;;;;;29.26;92.78;98830.63;5034678;28;20508;-59
2022/06/26 07:28:09;;;;;;;;;;;;;;;27.70;96.60;98848.50;5034466;28;19944;-59
2022/06/26 07:30:35;;;;;;;;;;;;;;;28.02;99.00;98844.28;5034059;28;19929;-59
2022/06/26 07:34:12;;;;;;;;;;;;;;;26.16;100.00;98856.25;5035703;28;19921;-59
2022/06/26 07:35:52;;;;;;;;;;;;;;;26.98;100.00;98855.97;5035335;28;19982;-59
2022/06/26 07:38:17;;;;;;;;;;;;;;;28.25;94.13;98844.44;5035526;28;19921;-59
2022/06/26 07:40:42;;;;;;;;;;;;;;;27.94;94.83;98853.88;5033929;28;19921;-59
2022/06/26 07:43:07;;;;;;;;;;;;;;;27.62;100.00;98859.06;5035203;28;19931;-59
2022/06/26 07:45:33;;;;;;;;;;;;;;;27.09;100.00;98868.91;5035399;28;20015;-59
2022/06/26 07:47:58;;;;;;;;;;;;;;;26.76;100.00;98881.97;5035102;28;19964;-59
2022/06/26 07:50:23;;;;;;;;;;;;;;;27.10;100.00;98874.06;5034310;28;20448;-59
2022/06/26 07:52:48;;;;;;;;;;;;;;;26.40;100.00;98889.09;5034922;28;19921;-59
2022/06/26 07:55:16;;;;;;;;;;;;;;;26.41;100.00;98890.75;5033160;28;19921;-59
2022/06/26 07:57:41;;;;;;;;;;;;;;;27.66;100.00;98882.38;5034551;28;19932;-59
2022/06/26 08:00:07;;;;;;;;;;;;;;;26.97;100.00;98892.16;5034711;28;19925;-59
2022/06/26 08:02:32;;;;;;;;;;;;;;;26.82;100.00;98893.72;5034660;28;20058;-59
2022/06/26 08:04:57;;;;;;;;;;;;;;;27.18;99.25;98898.88;5034173;28;20451;-59
2022/06/26 08:07:22;;;;;;;;;;;;;;;27.27;99.97;98898.78;5034347;28;19920;-59
2022/06/26 08:09:48;;;;;;;;;;;;;;;27.55;100.00;98895.91;5033243;28;20090;-59
2022/06/26 08:12:13;;;;;;;;;;;;;;;27.44;100.00;98897.03;5032875;28;19970;-59
2022/06/26 08:14:38;;;;;;;;;;;;;;;28.50;94.90;98887.66;5034773;28;19928;-59
2022/06/26 08:17:03;;;;;;;;;;;;;;;28.77;89.92;98897.06;5034433;28;19931;-59
2022/06/26 08:19:29;;;;;;;;;;;;;;;29.45;88.18;98893.06;5033572;28;19979;-59
2022/06/26 08:22:00;;;;;;;;;;;;;;;29.03;90.76;98880.09;5034140;28;20152;-59
2022/06/26 08:24:25;;;;;;;;;;;;;;;28.32;94.50;98893.09;5033673;28;19959;-59
2022/06/26 08:26:51;;;;;;;;;;;;;;;28.68;93.74;98875.06;5032970;28;20483;-59
2022/06/26 08:29:16;;;;;;;;;;;;;;;29.85;87.35;98874.47;5033518;28;20428;-60
2022/06/26 08:31:41;;;;;;;;;;;;;;;29.36;88.41;98880.84;5032808;28;19944;-59
2022/06/26 08:34:06;;;;;;;;;;;;;;;30.17;84.21;98871.56;5032481;28;20536;-60
2022/06/26 08:36:31;;;;;;;;;;;;;;;29.03;91.65;98877.44;5033561;28;20363;-59
2022/06/26 08:38:57;;;;;;;;;;;;;;;28.56;92.99;98874.56;5030580;28;19956;-59
2022/06/26 08:41:23;;;;;;;;;;;;;;;29.98;87.97;98867.56;5033378;28;19971;-60
2022/06/26 08:43:49;;;;;;;;;;;;;;;30.02;87.01;98871.53;5032312;28;19920;-59
2022/06/26 08:46:14;;;;;;;;;;;;;;;30.17;85.03;98878.72;5034210;28;19924;-60
2022/06/26 08:48:43;;;;;;;;;;;;;;;29.43;88.22;98873.03;5031686;28;19921;-60
2022/06/26 08:51:09;;;;;;;;;;;;;;;29.84;86.43;98863.03;5032694;28;20279;-60
2022/06/26 08:53:34;;;;;;;;;;;;;;;30.70;82.94;98869.00;5033244;28;19924;-60
2022/06/26 08:55:59;;;;;;;;;;;;;;;29.83;84.75;98865.84;5031918;28;20000;-60
2022/06/26 08:58:24;;;;;;;;;;;;;;;30.69;82.47;98871.81;5031477;28;19931;-60
2022/06/26 09:00:50;;;;;;;;;;;;;;;32.25;72.92;98863.50;5032237;28;19925;-60
2022/06/26 09:03:15;;;;;;;;;;;;;;;31.52;72.31;98860.09;5033035;28;19920;-60
2022/06/26 09:05:40;;;;;;;;;;;;;;;33.19;67.06;98864.97;5033983;28;20836;-60
2022/06/26 09:08:05;;;;;;;;;;;;;;;34.39;58.77;98859.91;5034461;28;19921;-60
2022/06/26 09:10:37;;;;;;;;;;;;;;;33.25;66.37;98866.84;5031534;28;19974;-59
2022/06/26 09:13:02;;;;;;;;;;;;;;;31.90;65.70;98878.50;5034429;28;20969;-59
2022/06/26 09:15:28;;;;;;;;;;;;;;;30.36;77.01;98878.25;5033443;28;19928;-59
2022/06/26 09:18:01;;;;;;;;;;;;;;;29.97;81.40;98879.22;5034116;28;20012;-59
2022/06/26 09:20:26;;;;;;;;;;;;;;;29.86;81.87;98889.41;5032544;28;20016;-59
2022/06/26 09:22:55;;;;;;;;;;;;;;;31.56;77.38;98874.66;5032900;28;20011;-59
2022/06/26 09:25:26;;;;;;;;;;;;;;;30.60;77.54;98890.50;5032328;28;19928;-59
2022/06/26 09:27:51;;;;;;;;;;;;;;;30.82;79.17;98894.09;5032298;28;19931;-60
2022/06/26 09:30:17;;;;;;;;;;;;;;;29.03;92.49;98903.97;5033131;28;20580;-60
2022/06/26 09:32:42;;;;;;;;;;;;;;;30.18;88.63;98902.44;5032781;28;20688;-59
2022/06/26 09:35:07;;;;;;;;;;;;;;;29.63;90.01;98905.25;5032940;28;19921;-60
2022/06/26 09:37:33;;;;;;;;;;;;;;;30.57;84.99;98896.19;5014794;28;19920;-60
2022/06/26 09:39:59;;;;;;;;;;;;;;;31.78;80.06;98902.16;5032355;28;19925;-59
2022/06/26 09:42:25;;;;;;;;;;;;;;;33.11;72.90;98889.16;5029408;28;20428;-59
2022/06/26 09:44:53;;;;;;;;;;;;;;;32.74;74.41;98885.00;5030920;28;20716;-60
2022/06/26 09:47:26;;;;;;;;;;;;;;;33.22;69.29;98880.59;5032018;28;19967;-60
2022/06/26 09:49:52;;;;;;;;;;;;;;;31.25;73.94;98882.88;5031672;28;19925;-60
2022/06/26 09:52:18;;;;;;;;;;;;;;;31.31;72.25;98889.25;5033177;28;20126;-60
2022/06/26 09:54:43;;;;;;;;;;;;;;;32.35;70.29;98889.81;5030833;28;19956;-59
2022/06/26 09:57:09;;;;;;;;;;;;;;;30.90;78.55;98905.69;5031366;28;20012;-59
2022/06/26 09:59:34;;;;;;;;;;;;;;;30.21;86.05;98895.94;5031396;28;19972;-60
2022/06/26 10:07:27;;;;;;;;;;;;;;;31.14;80.13;98910.75;5032303;28;19967;-59
2022/06/26 10:09:52;;;;;;;;;;;;;;;30.27;85.67;98910.38;5030397;28;20019;-59
2022/06/26 10:12:17;;;;;;;;;;;;;;;30.65;86.07;98908.56;5029412;28;20054;-60
2022/06/26 10:14:43;;;;;;;;;;;;;;;31.79;76.62;98910.94;5033200;28;20653;-59
2022/06/26 10:17:08;;;;;;;;;;;;;;;31.16;76.63;98915.91;5032636;28;19951;-59
2022/06/26 10:19:42;;;;;;;;;;;;;;;30.38;79.53;98913.47;5032539;28;19986;-59
2022/06/26 10:22:08;;;;;;;;;;;;;;;30.67;80.06;98914.53;5033775;28;19917;-59
2022/06/26 10:24:33;;;;;;;;;;;;;;;32.40;74.91;98908.72;5030282;28;19932;-59
2022/06/26 10:26:59;;;;;;;;;;;;;;;30.44;80.66;98926.00;5032236;28;20546;-60
2022/06/26 10:29:32;;;;;;;;;;;;;;;30.46;75.59;98919.72;5030962;28;19975;-59
2022/06/26 10:31:57;;;;;;;;;;;;;;;32.77;68.95;98912.09;5031734;28;19924;-59
2022/06/26 10:34:23;;;;;;;;;;;;;;;32.27;71.62;98913.91;5031953;28;19954;-59
2022/06/26 10:37:01;;;;;;;;;;;;;;;31.62;71.73;98919.16;5032196;28;20029;-59
2022/06/26 10:39:38;;;;;;;;;;;;;;;29.88;74.18;98930.72;5031545;28;19920;-59
2022/06/26 10:44:58;;;;;;;;;;;;;;;30.48;72.27;98925.66;5030551;28;19928;-59
2022/06/26 10:47:24;;;;;;;;;;;;;;;29.29;78.17;98927.63;5034131;28;19970;-60
2022/06/26 10:49:52;;;;;;;;;;;;;;;30.40;73.37;98922.09;5034681;28;20027;-59
2022/06/26 10:52:27;;;;;;;;;;;;;;;31.76;69.94;98916.66;5036973;28;20671;-59
2022/06/26 10:54:53;;;;;;;;;;;;;;;30.33;69.93;98918.47;5036555;28;19964;-59
2022/06/26 10:57:18;;;;;;;;;;;;;;;32.95;61.49;98905.44;5035356;28;20473;-59
2022/06/26 10:59:44;;;;;;;;;;;;;;;32.41;63.83;98905.06;5035200;28;19964;-59
2022/06/26 11:02:09;;;;;;;;;;;;;;;34.21;56.21;98894.47;5036443;28;19921;-59
2022/06/26 11:04:50;;;;;;;;;;;;;;;32.43;58.30;98913.69;5036013;28;20440;-60
2022/06/26 11:07:16;;;;;;;;;;;;;;;31.72;57.56;98910.06;5036635;28;20301;-60
2022/06/26 11:09:42;;;;;;;;;;;;;;;30.99;63.96;98912.56;5036213;28;19939;-60
2022/06/26 11:12:07;;;;;;;;;;;;;;;31.81;62.52;98919.59;5037279;28;19916;-59
2022/06/26 11:14:32;;;;;;;;;;;;;;;30.01;69.25;98916.84;5036292;28;20037;-60
2022/06/26 11:16:58;;;;;;;;;;;;;;;29.38;75.99;98922.13;5035324;28;19999;-59
2022/06/26 11:19:30;;;;;;;;;;;;;;;30.15;72.74;98917.91;5017498;28;21264;-59
2022/06/26 11:22:05;;;;;;;;;;;;;;;29.17;78.36;98924.50;5035660;28;19955;-59
2022/06/26 11:24:30;;;;;;;;;;;;;;;28.82;81.15;98925.72;5036572;28;19924;-59
2022/06/26 11:26:55;;;;;;;;;;;;;;;29.28;77.19;98936.56;5036074;28;19971;-59
2022/06/26 11:29:21;;;;;;;;;;;;;;;28.36;81.72;98936.81;5034497;28;19936;-59
2022/06/26 11:31:46;;;;;;;;;;;;;;;28.13;83.86;98931.31;5034778;28;19921;-59
2022/06/26 11:34:12;;;;;;;;;;;;;;;28.59;82.58;98933.53;5035635;28;19920;-60
2022/06/26 11:36:50;;;;;;;;;;;;;;;28.72;81.14;98929.38;5035515;28;19961;-59
2022/06/26 11:39:16;;;;;;;;;;;;;;;29.13;82.09;98937.28;5035990;28;21022;-59
2022/06/26 11:41:41;;;;;;;;;;;;;;;29.51;78.92;98931.34;5036208;28;19920;-59
2022/06/26 11:44:06;;;;;;;;;;;;;;;30.15;77.77;98936.50;5035587;28;19955;-59
2022/06/26 11:46:32;;;;;;;;;;;;;;;29.56;75.62;98940.47;5035712;28;19960;-59
2022/06/26 11:48:57;;;;;;;;;;;;;;;29.87;73.28;98949.47;5033528;28;19920;-60
2022/06/26 11:51:22;;;;;;;;;;;;;;;29.94;74.77;98940.59;5034795;28;20677;-60
2022/06/26 11:53:49;;;;;;;;;;;;;;;29.65;72.60;98940.41;5035357;28;19913;-59
2022/06/26 11:56:18;;;;;;;;;;;;;;;29.29;76.21;98940.91;5034951;28;19924;-59
2022/06/26 11:58:45;;;;;;;;;;;;;;;29.86;74.54;98938.03;5034834;28;20382;-60
2022/06/26 12:01:11;;;;;;;;;;;;;;;29.83;74.01;98935.69;5034286;28;19931;-59
2022/06/26 12:03:43;;;;;;;;;;;;;;;29.27;78.86;98929.63;5035188;28;20011;-60
2022/06/26 12:06:08;;;;;;;;;;;;;;;28.99;76.38;98927.34;5035380;28;19939;-60
2022/06/26 12:08:33;;;;;;;;;;;;;;;29.71;77.26;98927.31;5035586;28;19921;-59
2022/06/26 12:10:58;;;;;;;;;;;;;;;30.08;71.96;98927.59;5033194;28;19920;-59
2022/06/26 12:13:31;;;;;;;;;;;;;;;29.80;73.72;98931.56;5017270;28;19920;-59
2022/06/26 12:16:14;;;;;;;;;;;;;;;29.90;73.18;98927.84;5034136;28;20035;-59
2022/06/26 12:18:40;;;;;;;;;;;;;;;29.74;73.92;98920.81;5034791;28;19916;-59
2022/06/26 12:21:23;;;;;;;;;;;;;;;29.89;73.95;98919.06;5033549;28;20476;-60
2022/06/26 12:23:48;;;;;;;;;;;;;;;29.96;72.24;98920.03;5034054;28;20007;-59
2022/06/26 12:26:18;;;;;;;;;;;;;;;29.94;73.13;98921.19;5033073;28;20023;-60
2022/06/26 12:28:44;;;;;;;;;;;;;;;29.58;73.77;98922.53;5031527;28;19998;-59
2022/06/26 12:31:10;;;;;;;;;;;;;;;30.02;68.82;98929.94;5033589;28;20374;-59
2022/06/26 12:33:35;;;;;;;;;;;;;;;30.46;69.75;98922.38;5033956;28;19927;-59
2022/06/26 12:36:00;;;;;;;;;;;;;;;29.14;74.91;98936.28;5034129;28;19920;-59
2022/06/26 12:38:26;;;;;;;;;;;;;;;29.34;75.19;98935.91;5033011;28;19927;-59
2022/06/26 12:40:51;;;;;;;;;;;;;;;29.02;76.96;98937.63;5032271;28;20868;-59
2022/06/26 12:43:18;;;;;;;;;;;;;;;29.49;73.61;98939.50;5032256;28;19930;-59
2022/06/26 12:45:43;;;;;;;;;;;;;;;29.67;69.66;98933.91;5033648;28;20002;-60
2022/06/26 12:48:09;;;;;;;;;;;;;;;29.23;75.64;98939.75;5030744;28;20041;-60
2022/06/26 12:50:34;;;;;;;;;;;;;;;29.88;70.58;98936.03;5033915;28;20440;-59
2022/06/26 12:52:59;;;;;;;;;;;;;;;29.87;71.71;98947.63;5034228;28;20654;-59